Page, AZ

6:16 PM MDT on July 29, 2016 (GMT -0600)
grandview st | | Change Station

Elev 4275 ft 36.93 °N, 111.46 °W | Updated 10 minutes ago

Clear
Clear
96.6 °F
Feels Like 92 °F
N
11.4
Wind Variable Wind from SW

Today
High -- | Low -- °F
--% Chance of Precip.
Yesterday
High -- | Low -- °F
Precip. -- in
Pressure 29.70 in
Visibility 10.0 miles
Clouds Clear
Heat Index 92 °F
Dew Point 43 °F
Humidity 16%
Rainfall 0.00 in
Snow Depth Not available.
6:29 AM 8:34 PM
Waning Crescent, 18% visible
METAR KPGA 292353Z AUTO 27015G23KT 10SM CLR 36/03 A2994 RMK AO2 SLP058 T03610033 10411 20356 55006 TSNO
Pressure 29.70 in
Visibility 10.0 miles
Clouds Clear
Heat Index 92 °F
Dew Point 43 °F
Humidity 16%
Rainfall 0.00 in
Snow Depth Not available.
6:29 AM 8:34 PM
Waning Crescent, 18% visible
METAR KPGA 292353Z AUTO 27015G23KT 10SM CLR 36/03 A2994 RMK AO2 SLP058 T03610033 10411 20356 55006 TSNO

10-Day Weather Forecast

Almanac

Astronomy

Jul. 29, 2016 Rise Set
Actual Time
Civil Twilight
Nautical Twilight
Astronomical Twilight
Moon
Length of Visible Light
Length of Day
Tomorrow will be .
, % of the Moon is Illuminated

Today's Extremes

State Highs State Lows

Community

WunderPhotos

Upload Photos

1,928,449 photos uploaded!

WunderBlog® & News

Nearby

Air Quality

  Air Quality AQ Index Pollutant
Not available.

Snow Depth

Station Depth Elevation

Earthquake Activity

City Distance Mag. Time & Date
Minimum magnitude displayed is 2.5.

Coastal Water Temperatures

Place Temperature

Stations

Nearby Weather Stations

Station Location Temp. Windchill Dew Point Humidity Wind Precip. Elev Updated Type
                   

Watches & Warnings

There are currently no watches in effect.